Skip to main content.

Regional Weather Summary







Station Name-Location
 
Time
 
Baro
Pressure
Outside
Temp
 Temp
Max
Temp
Min
Dew
Point
RH
%
Wind
Speed
Average
Wind Dir
Wind Max
Last Hr
Wind
Gust Max
Rain
Today
Rain
Last Hr
Rain Rate
in/hr
Rain
Month
Rain
Year
Vermilionweather-Near Lake Vermilion02:49:1630.30 inHg 43.0°F 45.1°F43.0°F27.3°F54%1.0 mph SSW10.4 mph 12.7 mph 0.00in0.00in0.00in/hr0.00in2.30in
EMA HQ's-Home Gardens02:49:160.00 inHg    42.6°F   43.9°F42.6°F30.2°F61%0.2 mph North4.6 mph 6.0 mph 0.00in0.00in0.00in/hr0.00in3.03in
k9adl.net-Oakwood- -:- -:- -Old Data  - -.-    - -.-- -.-- -.-- -%- - -.-- -- - -.-- - -.-- - . -0.00in0.00in/hr- - . -- - . -
Mahomet02:49:1730.34 inHg    41.2°F   41.5°F39.4°F33.4°F74%4.9 mph South11.5 mph 12.7 mph 0.00in0.00in0.00in/hr0.00in4.49in

Version 2.12 6th August 2012

If you own a personal weather station
and would like to have your data displayed here,
use the "Contact admin" link at the bottom of the page
to find out how.

For full weather information visit the individual websites above
This page was created by Clevedon Weather using some basic php scripts from TNET Weather.
The script for displaying the data has been produced by Clevedon Weather but has been modified by Vermilionweather.com for it's own use.



Nearby METAR Reports

Nearby METAR Reports

 

KDNV - Danville, Illinois, USA
Distance from station: 0 0mi, 0km
Updated: Mon, 08-Mar-2021 2:35am CST
Clear
Clear
 Wind from S
Wind: S 13 mph , 20 km/h
Temperature: 43°F , 6°C
Wind Chill: 36°F , 2°C
Dew Point: 28°F , -2°C
Humidity: 57%
Barometer: 30.38 inHg , 1028.8 hPa
Clouds: Clear
Visibility: 10 miles , 16 km
2021/03/08 08:35 KDNV 080835Z AUTO 19011KT 10SM CLR 06/M02 A3038 RMK AO2 T00601016
KTIP - Rantoul, Illinois, USA
Distance from station: W 30mi, 48km
Updated: Mon, 08-Mar-2021 2:35am CST
Clear
Clear
 Wind from S
Wind: S 8 mph , 13 km/h
Temperature: 34°F , 1°C
Wind Chill: 27°F , -3°C
Dew Point: 30°F , -1°C
Humidity: 87%
Barometer: 30.36 inHg , 1028.1 hPa
Clouds: Clear
Visibility: 10 miles , 16 km
2021/03/08 08:35 KTIP 080835Z AUTO 17007KT 10SM CLR 01/M01 A3036 RMK AO2 T00141014
 
KPRG - Paris, Illinois, USA
Distance from station: S 35mi, 56km
Updated: Mon, 08-Mar-2021 2:35am CST
Clear
Clear
 Wind from SSE
Wind: SSE 8 mph , 13 km/h
Temperature: 36°F , 2°C
Wind Chill: 30°F , -1°C
Dew Point: 30°F , -1°C
Humidity: 81%
Barometer: 30.40 inHg , 1029.5 hPa
Clouds: Clear
Visibility: 10 miles , 16 km
2021/03/08 08:35 KPRG 080835Z AUTO 16007KT 10SM CLR 02/M01 A3040 RMK AO2 T00151011
KCMI - Champaign/Urbana, Illinois, USA
Distance from station: WSW 37mi, 60km
Updated: Mon, 08-Mar-2021 1:53am CST
Clear
Clear
 Wind from S
Wind: S 12 mph , 19 km/h
Temperature: 41°F , 5°C
Wind Chill: 34°F , 1°C
Dew Point: 30°F , -1°C
Humidity: 66%
Barometer: 30.37 inHg , 1028.4 hPa
Clouds: Clear
Visibility: 10 miles , 16 km
2021/03/08 07:53 KCMI 080753Z AUTO 17010KT 10SM CLR 05/M01 A3037 RMK AO2 SLP286 T00501006
 
KLAF - Lafayette, Indiana, USA
Distance from station: ENE 38mi, 61km
Updated: Mon, 08-Mar-2021 1:54am CST
Clear
Clear
 Wind from calm
Wind: Calm
Temperature: 43°F , 6°C
Dew Point: 25°F , -4°C
Humidity: 49%
Barometer: 30.39 inHg , 1029.1 hPa
Clouds: Clear
Visibility: 10 miles , 16 km
2021/03/08 07:54 KLAF 080754Z AUTO 00000KT 10SM CLR 06/M04 A3039 RMK AO2 SLP291 T00561039
KCFJ - Crawfordsville, Indiana, USA
Distance from station: ESE 39mi, 63km
Updated: Mon, 08-Mar-2021 2:35am CST
Clear
Clear
 Wind from calm
Wind: Calm
Temperature: 34°F , 1°C
Dew Point: 25°F , -4°C
Humidity: 70%
Barometer: 30.39 inHg , 1029.1 hPa
Clouds: Clear
Visibility: 10 miles , 16 km
2021/03/08 08:35 KCFJ 080835Z AUTO 00000KT 10SM CLR 01/M04 A3039 RMK AO2 T00111040

Metar display script from Saratoga-Weather.org

Go To Top